Airfield :
LOGIN :

Register | Disclaimer

   EN    FR    IT 

 










Legend :    VFR   Marginal VFR   IFR   Intensive IFR   Very Intensive IFR
Visi :
Ceiling :
>= 8 km
>= 3000ft
5 to 8 km
1000 to 3000 ft
1500m to 5 km
500 to 1000 ft
800 to 1500m
200 to 500 ft
< 800m
< 200 ft
Symbols :   Thunderstorms  Fog  Heavy snow  Heavy precipitations  Wind > 20 kt
SIGMETs :     Misc.  Thunderstorms  Icing  Turbulence  Mountain Waves  Volcanic Ashes







- Airport Elevation : 202 ft
- IATA code : LGW
- Download approach charts


EGKK - London Gatwick

CURRENT METAR :
  • 260850Z 24009KT 9999 FEW018 17/13 Q1015

EXPIRED METARs :
  • 260820Z 24008KT 9999 FEW018 17/13 Q1015
  • 260750Z 22009KT 180V250 9999 SCT009 15/12 Q1015
  • 260720Z 23008KT 9999 SCT008 14/12 Q1015
  • 260650Z 23008KT 190V250 9999 FEW008 14/12 Q1015
  • 260620Z 23009KT CAVOK 13/11 Q1015

TAF AMD TAF EGKK
Valid from the 26 at 06:00 until the 27 at 12:00 UTC


260643Z 2606/2712 24009KT 9999 SCT045
TEMPO 2607/2611 BKN010
TEMPO 2611/2618 8000 -RA BKN012
PROB30
TEMPO 2615/2618 SHRA
PROB30
TEMPO 2711/2712 8000 SHRA
No reported NOTAMs for that airfield.



MET'MAP, your aeronautical weather chart ! - Copyright ORBIFLY December 2007 - Disclaimer

ORBIFLY MET'MAP TEAM :

Programming & Development : Alexandra Zaïnal
Concept & Development : Baudouin d'Aumeries
Co-Development & Prog : Marc-Olivier Méhu
Technical & hardware support : Manuel Goepfert

Contact : metmap@orbifly.com




SOURCES & CREDITS :

   NOAA